• Join FlightAware (Why Join?)
  • Login
  • US Flag 
08:02AM EST


 

Airport Tracker/Info


-or-


 

Live Flight TrackerFlight Track Log ✈ LYM1725 ✈ 02-May-2013 ✈ KRIW - KDEN

Flight Track Log - Related Links

Times and Time Zones

All times are in EDT time to prevent confusion due to time zone crossing. See the LYM1725 flight status page for this flight to view local times or setup timezone preferences in your user account.

Time Position Orientation Groundspeed Altitude Reporting Facility
EDT Latitude Longitude Course Direction KTS MPH feet Rate Location/Type
09:33PM 42.9797 -108.2864 122° Southeast 222 255 11,300  Level Salt Lake Center
09:34PM 42.9436 -108.2083 122° Southeast 223 257 13,400 1,680 Climbing Salt Lake Center
09:35PM 42.9081 -108.1375 124° Southeast 230 265 14,800 1,260 Climbing Salt Lake Center
09:36PM 42.8689 -108.0622 125° Southeast 244 281 16,000 1,200 Climbing Salt Lake Center
09:37PM 42.8172 -107.9767 129° Southeast 256 295 17,300 1,020 Climbing Salt Lake Center
09:38PM 42.7700 -107.9025 131° Southeast 266 306 18,200 1,020 Climbing Salt Lake Center
09:39PM 42.7164 -107.8203 132° Southeast 263 303 19,500 1,140 Climbing Salt Lake Center
09:40PM 42.6700 -107.7486 131° Southeast 263 303 20,600 720 Climbing Salt Lake Center
09:41PM 42.6233 -107.6744 131° Southeast 266 306 21,000 180 Climbing Salt Lake Center
09:42PM 42.5600 -107.5767 131° Southeast 293 337 21,000  Level Salt Lake Center
09:43PM 42.5028 -107.4900 132° Southeast 312 359 21,000 -60 Level Salt Lake Center
09:44PM 42.4383 -107.3906 131° Southeast 315 362 20,900  Descending Salt Lake Center
09:45PM 42.3986 -107.3319 133° Southeast 319 367 21,000  Climbing Denver Center
09:46PM 42.3414 -107.2442 131° Southeast 322 371 20,900 -60 Descending Denver Center
09:47PM 42.2814 -107.1556 132° Southeast 327 376 20,900  Level Denver Center
09:48PM 42.2136 -107.0553 132° Southeast 326 375 20,900  Level Denver Center
09:49PM 42.1486 -106.9522 130° Southeast 323 372 21,000  Climbing Denver Center
09:50PM 42.0942 -106.8661 130° Southeast 319 367 20,900  Descending Denver Center
09:51PM 42.0272 -106.7658 132° Southeast 321 369 21,000  Climbing Denver Center
09:52PM 41.9722 -106.6800 131° Southeast 319 367 21,000 -60 Level Denver Center
09:53PM 41.9061 -106.5797 132° Southeast 320 368 20,900  Descending Denver Center
09:54PM 41.8500 -106.4942 131° Southeast 323 372 21,100  Climbing Denver Center
09:55PM 41.7844 -106.3933 131° Southeast 324 373 20,900 -60 Descending Denver Center
09:56PM 41.7189 -106.2928 131° Southeast 323 372 21,000  Climbing Denver Center
09:57PM 41.6517 -106.1925 132° Southeast 323 372 20,900 -60 Descending Denver Center
09:59PM 41.5944 -106.1067 132° Southeast 324 373 20,900 60 Level Denver Center
10:00PM 41.5283 -106.0056 131° Southeast 324 373 21,100 -300 Climbing Denver Center
10:01PM 41.4503 -105.8919 132° Southeast 327 376 20,300 -720 Descending Denver Center
10:02PM 41.3886 -105.8003 132° Southeast 342 394 19,600 -780 Descending Denver Center
10:03PM 41.3181 -105.6919 131° Southeast 349 402 18,700 -840 Descending Denver Center
10:04PM 41.2550 -105.6031 133° Southeast 347 399 17,900 -540 Descending Denver Center
10:05PM 41.2019 -105.5289 134° Southeast 348 400 17,600 -780 Descending Denver Center
10:06PM 41.1200 -105.4108 133° Southeast 342 394 16,400 -1,080 Descending Denver Center
10:07PM 41.0569 -105.3233 134° Southeast 342 394 15,400 -1,140 Descending Denver Center
10:08PM 40.9864 -105.2197 132° Southeast 336 387 14,100 -1,140 Descending Denver Center
10:09PM 40.9264 -105.1283 131° Southeast 328 377 13,100 -540 Descending Denver Center
10:10PM 40.8672 -105.0372 131° Southeast 324 373 13,000  Descending Denver Center
10:11PM 40.8033 -104.9528 135° Southeast 323 372 13,100 -300 Climbing Denver Center
10:12PM 40.7200 -104.8958 153° Southeast 353 406 12,400 -780 Descending Denver Center
10:13PM 40.6319 -104.8906 177° South 320 368 11,600 -720 Descending Denver Center
10:14PM 40.5378 -104.9000 184° South 315 362 11,000 -300 Descending Denver Center
10:15PM 40.4492 -104.9058 183° South 317 365 11,100  Climbing Denver Center
10:16PM 40.3614 -104.9125 183° South 318 366 11,100  Level Denver Center
10:17PM 40.2872 -104.8914 168° South 319 367 11,100  Level Denver Center
10:18PM 40.1817 -104.8592 167° South 317 365 11,100  Level Denver Center
10:19PM 40.0914 -104.8314 167° South 311 358 11,100 -60 Level Denver Center
10:20PM 40.0069 -104.8067 167° South 310 357 11,000  Descending Denver Center
10:21PM 39.9233 -104.7889 171° South 306 352 11,100  Climbing Denver Center
10:23PM 39.8442 -104.7783 174° South 273 314 11,000 -360 Descending Denver Center
10:24PM 39.7572 -104.7758 179° South 256 295 10,300 -900 Descending Denver Center
10:25PM 39.6881 -104.7833 185° South 249 287 9,200 -600 Descending Denver Center
10:26PM 39.6683 -104.7100 109° East 225 259 9,100 -420 Descending Denver Center
10:27PM 39.6864 -104.6689 60° Northeast 184 212 8,400 -840 Descending Denver Center
10:28PM 39.7444 -104.6628 North 169 194 7,400 -900 Descending Denver Center
10:29PM 39.7914 -104.6614 North 170 196 6,600 -960 Descending Denver Center
10:30PM 39.8331 -104.6617 360° North 152 175 5,500 -1,080 Descending Denver Center
10:32PM 39.8500 -104.6667 28° Northeast  Level FlightAware Approximate
10:39PM 39.8617 -104.6732 28° Northeast  Level Estimated
10:40PM 39.8617 -104.6732 28° Northeast  Level Estimated
10:41PM 39.8617 -104.6732 28° Northeast  Level Estimated
10:42PM 39.8617 -104.6732 28° Northeast  Level Estimated
10:43PM 39.8617 -104.6732 28° Northeast  Level Estimated
10:44PM 39.8617 -104.6732 28° Northeast  Level Estimated